sensor_id;sensor_type;location;lat;lon;timestamp;P1;durP1;ratioP1;P2;durP2;ratioP2
62024;SDS011;47978;49.118;12.146;2023-05-10T00:03:49;11.82;;;5.88;;
62024;SDS011;47978;49.118;12.146;2023-05-10T00:07:52;8.02;;;5.07;;
62024;SDS011;47978;49.118;12.146;2023-05-10T00:11:54;7.00;;;5.70;;
62024;SDS011;47978;49.118;12.146;2023-05-10T00:15:55;8.75;;;5.53;;
62024;SDS011;47978;49.118;12.146;2023-05-10T00:19:57;7.68;;;5.28;;
62024;SDS011;47978;49.118;12.146;2023-05-10T00:24:00;7.07;;;5.55;;
62024;SDS011;47978;49.118;12.146;2023-05-10T00:28:02;9.45;;;5.38;;
62024;SDS011;47978;49.118;12.146;2023-05-10T00:32:03;8.93;;;5.38;;
62024;SDS011;47978;49.118;12.146;2023-05-10T00:36:06;9.98;;;5.68;;
62024;SDS011;47978;49.118;12.146;2023-05-10T00:40:10;8.77;;;5.57;;
62024;SDS011;47978;49.118;12.146;2023-05-10T00:44:12;12.40;;;5.82;;
62024;SDS011;47978;49.118;12.146;2023-05-10T00:48:13;7.25;;;5.60;;
62024;SDS011;47978;49.118;12.146;2023-05-10T00:52:15;8.93;;;5.40;;
62024;SDS011;47978;49.118;12.146;2023-05-10T00:56:18;10.75;;;5.50;;
62024;SDS011;47978;49.118;12.146;2023-05-10T01:04:21;10.45;;;5.50;;
62024;SDS011;47978;49.118;12.146;2023-05-10T01:08:23;11.40;;;6.40;;
62024;SDS011;47978;49.118;12.146;2023-05-10T01:12:26;12.40;;;5.70;;
62024;SDS011;47978;49.118;12.146;2023-05-10T01:16:28;9.23;;;5.50;;
62024;SDS011;47978;49.118;12.146;2023-05-10T01:20:35;7.57;;;5.55;;
62024;SDS011;47978;49.118;12.146;2023-05-10T01:29:29;11.15;;;5.43;;
62024;SDS011;47978;49.118;12.146;2023-05-10T01:33:54;10.35;;;6.28;;
62024;SDS011;47978;49.118;12.146;2023-05-10T01:37:59;8.23;;;5.30;;
62024;SDS011;47978;49.118;12.146;2023-05-10T01:42:09;6.88;;;5.22;;
62024;SDS011;47978;49.118;12.146;2023-05-10T01:46:14;9.20;;;6.10;;
62024;SDS011;47978;49.118;12.146;2023-05-10T01:50:22;8.02;;;5.80;;
62024;SDS011;47978;49.118;12.146;2023-05-10T01:54:28;12.80;;;5.53;;
62024;SDS011;47978;49.118;12.146;2023-05-10T01:58:31;10.38;;;6.85;;
62024;SDS011;47978;49.118;12.146;2023-05-10T02:02:36;12.60;;;6.65;;
62024;SDS011;47978;49.118;12.146;2023-05-10T02:06:40;9.63;;;6.45;;
62024;SDS011;47978;49.118;12.146;2023-05-10T02:10:44;11.60;;;6.47;;
62024;SDS011;47978;49.118;12.146;2023-05-10T02:14:47;10.98;;;6.60;;
62024;SDS011;47978;49.118;12.146;2023-05-10T02:18:48;9.82;;;6.30;;
62024;SDS011;47978;49.118;12.146;2023-05-10T02:22:54;11.60;;;6.57;;
62024;SDS011;47978;49.118;12.146;2023-05-10T02:26:57;10.38;;;6.85;;
62024;SDS011;47978;49.118;12.146;2023-05-10T02:30:59;12.80;;;7.55;;
62024;SDS011;47978;49.118;12.146;2023-05-10T02:35:02;11.87;;;7.70;;
62024;SDS011;47978;49.118;12.146;2023-05-10T02:39:06;11.70;;;7.38;;
62024;SDS011;47978;49.118;12.146;2023-05-10T02:43:09;12.02;;;7.97;;
62024;SDS011;47978;49.118;12.146;2023-05-10T02:47:14;10.05;;;7.07;;
62024;SDS011;47978;49.118;12.146;2023-05-10T02:51:15;13.68;;;8.38;;
62024;SDS011;47978;49.118;12.146;2023-05-10T02:55:21;14.57;;;6.88;;
62024;SDS011;47978;49.118;12.146;2023-05-10T02:59:26;15.00;;;7.68;;
62024;SDS011;47978;49.118;12.146;2023-05-10T03:03:28;12.60;;;7.93;;
62024;SDS011;47978;49.118;12.146;2023-05-10T03:07:30;15.05;;;8.32;;
62024;SDS011;47978;49.118;12.146;2023-05-10T03:11:35;12.07;;;8.07;;
62024;SDS011;47978;49.118;12.146;2023-05-10T03:15:47;13.23;;;8.00;;
62024;SDS011;47978;49.118;12.146;2023-05-10T03:19:56;12.35;;;7.57;;
62024;SDS011;47978;49.118;12.146;2023-05-10T03:28:07;17.25;;;8.30;;
62024;SDS011;47978;49.118;12.146;2023-05-10T03:32:10;14.40;;;7.88;;
62024;SDS011;47978;49.118;12.146;2023-05-10T03:36:11;15.93;;;9.63;;
62024;SDS011;47978;49.118;12.146;2023-05-10T03:40:13;20.10;;;10.00;;
62024;SDS011;47978;49.118;12.146;2023-05-10T03:44:16;16.73;;;10.10;;
62024;SDS011;47978;49.118;12.146;2023-05-10T03:48:18;17.00;;;10.43;;
62024;SDS011;47978;49.118;12.146;2023-05-10T03:52:19;18.58;;;10.68;;
62024;SDS011;47978;49.118;12.146;2023-05-10T03:56:21;18.60;;;11.43;;
62024;SDS011;47978;49.118;12.146;2023-05-10T04:00:23;19.05;;;12.52;;
62024;SDS011;47978;49.118;12.146;2023-05-10T04:04:25;21.00;;;11.43;;
62024;SDS011;47978;49.118;12.146;2023-05-10T04:08:27;21.58;;;12.35;;
62024;SDS011;47978;49.118;12.146;2023-05-10T04:12:29;19.80;;;13.18;;
62024;SDS011;47978;49.118;12.146;2023-05-10T04:16:32;22.60;;;13.15;;
62024;SDS011;47978;49.118;12.146;2023-05-10T04:20:33;22.65;;;12.57;;
62024;SDS011;47978;49.118;12.146;2023-05-10T04:24:35;22.27;;;13.15;;
62024;SDS011;47978;49.118;12.146;2023-05-10T04:28:36;22.35;;;11.95;;
62024;SDS011;47978;49.118;12.146;2023-05-10T04:32:39;19.45;;;12.07;;
62024;SDS011;47978;49.118;12.146;2023-05-10T04:36:41;20.00;;;11.82;;
62024;SDS011;47978;49.118;12.146;2023-05-10T04:40:42;20.02;;;11.27;;
62024;SDS011;47978;49.118;12.146;2023-05-10T04:44:44;20.45;;;11.38;;
62024;SDS011;47978;49.118;12.146;2023-05-10T04:48:47;22.23;;;11.10;;
62024;SDS011;47978;49.118;12.146;2023-05-10T04:56:50;16.98;;;10.98;;
62024;SDS011;47978;49.118;12.146;2023-05-10T05:00:51;17.30;;;11.18;;
62024;SDS011;47978;49.118;12.146;2023-05-10T05:04:55;18.20;;;12.02;;
62024;SDS011;47978;49.118;12.146;2023-05-10T05:08:56;22.33;;;12.50;;
62024;SDS011;47978;49.118;12.146;2023-05-10T05:12:58;20.38;;;12.32;;
62024;SDS011;47978;49.118;12.146;2023-05-10T05:17:00;19.75;;;12.23;;
62024;SDS011;47978;49.118;12.146;2023-05-10T05:21:03;21.17;;;11.70;;
62024;SDS011;47978;49.118;12.146;2023-05-10T05:25:05;20.75;;;13.10;;
62024;SDS011;47978;49.118;12.146;2023-05-10T05:29:07;27.42;;;13.18;;
62024;SDS011;47978;49.118;12.146;2023-05-10T05:33:08;22.23;;;11.80;;
62024;SDS011;47978;49.118;12.146;2023-05-10T05:37:13;21.17;;;12.98;;
62024;SDS011;47978;49.118;12.146;2023-05-10T05:41:15;21.20;;;13.65;;
62024;SDS011;47978;49.118;12.146;2023-05-10T05:45:16;21.88;;;13.30;;
62024;SDS011;47978;49.118;12.146;2023-05-10T05:49:18;20.25;;;12.98;;
62024;SDS011;47978;49.118;12.146;2023-05-10T05:53:21;27.38;;;13.23;;
62024;SDS011;47978;49.118;12.146;2023-05-10T05:57:23;27.88;;;12.57;;
62024;SDS011;47978;49.118;12.146;2023-05-10T06:01:24;20.42;;;13.48;;
62024;SDS011;47978;49.118;12.146;2023-05-10T06:05:26;22.65;;;12.98;;
62024;SDS011;47978;49.118;12.146;2023-05-10T06:09:29;24.63;;;13.60;;
62024;SDS011;47978;49.118;12.146;2023-05-10T06:13:30;20.88;;;12.75;;
62024;SDS011;47978;49.118;12.146;2023-05-10T06:17:32;20.13;;;11.80;;
62024;SDS011;47978;49.118;12.146;2023-05-10T06:21:34;23.70;;;12.95;;
62024;SDS011;47978;49.118;12.146;2023-05-10T06:25:37;21.75;;;12.98;;
62024;SDS011;47978;49.118;12.146;2023-05-10T06:29:38;21.63;;;13.45;;
62024;SDS011;47978;49.118;12.146;2023-05-10T06:33:40;22.75;;;12.68;;
62024;SDS011;47978;49.118;12.146;2023-05-10T06:37:41;26.05;;;13.05;;
62024;SDS011;47978;49.118;12.146;2023-05-10T06:41:44;21.35;;;11.65;;
62024;SDS011;47978;49.118;12.146;2023-05-10T06:45:45;19.85;;;12.65;;
62024;SDS011;47978;49.118;12.146;2023-05-10T06:49:48;20.60;;;11.60;;
62024;SDS011;47978;49.118;12.146;2023-05-10T06:53:50;24.17;;;12.52;;
62024;SDS011;47978;49.118;12.146;2023-05-10T06:57:53;20.50;;;11.93;;
62024;SDS011;47978;49.118;12.146;2023-05-10T07:01:54;20.05;;;12.65;;
62024;SDS011;47978;49.118;12.146;2023-05-10T07:05:59;24.33;;;12.02;;
62024;SDS011;47978;49.118;12.146;2023-05-10T07:10:01;23.10;;;13.13;;
62024;SDS011;47978;49.118;12.146;2023-05-10T07:14:04;25.20;;;12.63;;
62024;SDS011;47978;49.118;12.146;2023-05-10T07:18:06;20.55;;;11.80;;
62024;SDS011;47978;49.118;12.146;2023-05-10T07:22:08;18.02;;;11.75;;
62024;SDS011;47978;49.118;12.146;2023-05-10T07:26:09;17.85;;;11.88;;
62024;SDS011;47978;49.118;12.146;2023-05-10T07:30:13;19.27;;;11.63;;
62024;SDS011;47978;49.118;12.146;2023-05-10T07:34:14;22.80;;;11.10;;
62024;SDS011;47978;49.118;12.146;2023-05-10T07:38:16;18.83;;;11.43;;
62024;SDS011;47978;49.118;12.146;2023-05-10T07:42:18;19.50;;;12.07;;
62024;SDS011;47978;49.118;12.146;2023-05-10T07:46:21;19.88;;;12.60;;
62024;SDS011;47978;49.118;12.146;2023-05-10T07:50:22;23.60;;;13.52;;
62024;SDS011;47978;49.118;12.146;2023-05-10T07:54:24;18.75;;;12.10;;
62024;SDS011;47978;49.118;12.146;2023-05-10T07:58:25;16.70;;;10.80;;
62024;SDS011;47978;49.118;12.146;2023-05-10T08:02:29;19.70;;;11.57;;
62024;SDS011;47978;49.118;12.146;2023-05-10T08:10:32;14.45;;;9.38;;
62024;SDS011;47978;49.118;12.146;2023-05-10T08:14:33;12.80;;;9.00;;
62024;SDS011;47978;49.118;12.146;2023-05-10T08:18:36;14.82;;;9.10;;
62024;SDS011;47978;49.118;12.146;2023-05-10T08:26:39;11.60;;;7.75;;
62024;SDS011;47978;49.118;12.146;2023-05-10T08:30:41;10.90;;;7.70;;
62024;SDS011;47978;49.118;12.146;2023-05-10T08:34:44;11.27;;;7.63;;
62024;SDS011;47978;49.118;12.146;2023-05-10T08:38:45;13.00;;;7.90;;
62024;SDS011;47978;49.118;12.146;2023-05-10T08:42:48;14.35;;;7.53;;
62024;SDS011;47978;49.118;12.146;2023-05-10T08:46:55;13.60;;;8.02;;
62024;SDS011;47978;49.118;12.146;2023-05-10T08:55:01;11.88;;;8.13;;
62024;SDS011;47978;49.118;12.146;2023-05-10T08:59:03;12.27;;;8.07;;
62024;SDS011;47978;49.118;12.146;2023-05-10T09:03:05;12.20;;;7.55;;
62024;SDS011;47978;49.118;12.146;2023-05-10T09:07:08;11.77;;;8.60;;
62024;SDS011;47978;49.118;12.146;2023-05-10T09:11:09;10.52;;;7.68;;
62024;SDS011;47978;49.118;12.146;2023-05-10T09:19:16;11.55;;;7.78;;
62024;SDS011;47978;49.118;12.146;2023-05-10T09:23:20;9.02;;;6.25;;
62024;SDS011;47978;49.118;12.146;2023-05-10T09:27:26;11.02;;;7.45;;
62024;SDS011;47978;49.118;12.146;2023-05-10T09:31:43;8.85;;;6.13;;
62024;SDS011;47978;49.118;12.146;2023-05-10T09:35:46;8.60;;;6.13;;
62024;SDS011;47978;49.118;12.146;2023-05-10T09:39:49;10.68;;;6.18;;
62024;SDS011;47978;49.118;12.146;2023-05-10T09:43:55;6.22;;;4.90;;
62024;SDS011;47978;49.118;12.146;2023-05-10T09:47:57;6.65;;;4.75;;
62024;SDS011;47978;49.118;12.146;2023-05-10T09:52:00;6.78;;;4.50;;
62024;SDS011;47978;49.118;12.146;2023-05-10T09:56:04;4.25;;;2.42;;
62024;SDS011;47978;49.118;12.146;2023-05-10T10:04:08;2.65;;;2.00;;
62024;SDS011;47978;49.118;12.146;2023-05-10T10:08:10;2.95;;;1.95;;
62024;SDS011;47978;49.118;12.146;2023-05-10T10:12:14;4.03;;;1.98;;
62024;SDS011;47978;49.118;12.146;2023-05-10T10:16:16;4.40;;;1.75;;
62024;SDS011;47978;49.118;12.146;2023-05-10T10:20:18;3.13;;;1.55;;
62024;SDS011;47978;49.118;12.146;2023-05-10T10:24:21;3.75;;;1.75;;
62024;SDS011;47978;49.118;12.146;2023-05-10T10:28:24;4.07;;;1.60;;
62024;SDS011;47978;49.118;12.146;2023-05-10T10:32:40;2.10;;;1.67;;
62024;SDS011;47978;49.118;12.146;2023-05-10T10:36:55;3.33;;;1.83;;
62024;SDS011;47978;49.118;12.146;2023-05-10T10:41:01;4.88;;;1.85;;
62024;SDS011;47978;49.118;12.146;2023-05-10T10:45:14;2.03;;;1.55;;
62024;SDS011;47978;49.118;12.146;2023-05-10T10:49:16;3.28;;;1.45;;
62024;SDS011;47978;49.118;12.146;2023-05-10T10:53:18;4.40;;;3.17;;
62024;SDS011;47978;49.118;12.146;2023-05-10T10:57:19;2.33;;;2.08;;
62024;SDS011;47978;49.118;12.146;2023-05-10T11:01:22;6.47;;;5.88;;
62024;SDS011;47978;49.118;12.146;2023-05-10T11:05:25;3.97;;;2.38;;
62024;SDS011;47978;49.118;12.146;2023-05-10T11:09:38;2.70;;;1.55;;
62024;SDS011;47978;49.118;12.146;2023-05-10T11:13:41;2.20;;;1.65;;
62024;SDS011;47978;49.118;12.146;2023-05-10T11:17:45;2.58;;;1.58;;
62024;SDS011;47978;49.118;12.146;2023-05-10T11:21:49;2.00;;;1.40;;
62024;SDS011;47978;49.118;12.146;2023-05-10T11:25:52;5.03;;;1.60;;
62024;SDS011;47978;49.118;12.146;2023-05-10T11:29:53;3.25;;;1.85;;
62024;SDS011;47978;49.118;12.146;2023-05-10T11:33:57;2.55;;;1.70;;
62024;SDS011;47978;49.118;12.146;2023-05-10T11:38:00;2.92;;;1.58;;
62024;SDS011;47978;49.118;12.146;2023-05-10T11:42:01;2.08;;;1.48;;
62024;SDS011;47978;49.118;12.146;2023-05-10T11:46:03;2.13;;;1.70;;
62024;SDS011;47978;49.118;12.146;2023-05-10T11:50:07;2.03;;;1.50;;
62024;SDS011;47978;49.118;12.146;2023-05-10T11:54:10;4.32;;;1.70;;
62024;SDS011;47978;49.118;12.146;2023-05-10T12:02:13;3.90;;;2.50;;
62024;SDS011;47978;49.118;12.146;2023-05-10T12:06:16;2.70;;;1.67;;
62024;SDS011;47978;49.118;12.146;2023-05-10T12:10:24;4.05;;;1.55;;
62024;SDS011;47978;49.118;12.146;2023-05-10T12:14:27;1.73;;;1.42;;
62024;SDS011;47978;49.118;12.146;2023-05-10T12:18:28;7.22;;;1.90;;
62024;SDS011;47978;49.118;12.146;2023-05-10T12:22:32;6.50;;;3.47;;
62024;SDS011;47978;49.118;12.146;2023-05-10T12:26:34;7.95;;;4.75;;
62024;SDS011;47978;49.118;12.146;2023-05-10T12:30:36;17.63;;;5.63;;
62024;SDS011;47978;49.118;12.146;2023-05-10T12:34:38;12.75;;;4.90;;
62024;SDS011;47978;49.118;12.146;2023-05-10T12:38:42;8.38;;;3.40;;
62024;SDS011;47978;49.118;12.146;2023-05-10T12:42:44;7.72;;;3.58;;
62024;SDS011;47978;49.118;12.146;2023-05-10T12:46:46;6.15;;;3.05;;
62024;SDS011;47978;49.118;12.146;2023-05-10T12:50:47;3.38;;;2.30;;
62024;SDS011;47978;49.118;12.146;2023-05-10T12:54:50;8.70;;;4.05;;
62024;SDS011;47978;49.118;12.146;2023-05-10T12:58:52;11.00;;;5.10;;
62024;SDS011;47978;49.118;12.146;2023-05-10T13:02:53;4.10;;;2.78;;
62024;SDS011;47978;49.118;12.146;2023-05-10T13:06:55;4.60;;;1.70;;
62024;SDS011;47978;49.118;12.146;2023-05-10T13:10:58;5.78;;;2.55;;
62024;SDS011;47978;49.118;12.146;2023-05-10T13:19:01;2.30;;;1.88;;
62024;SDS011;47978;49.118;12.146;2023-05-10T13:23:02;2.63;;;1.77;;
62024;SDS011;47978;49.118;12.146;2023-05-10T13:27:05;3.00;;;2.20;;
62024;SDS011;47978;49.118;12.146;2023-05-10T13:31:07;2.10;;;1.80;;
62024;SDS011;47978;49.118;12.146;2023-05-10T13:35:09;2.58;;;1.80;;
62024;SDS011;47978;49.118;12.146;2023-05-10T13:39:10;3.22;;;1.67;;
62024;SDS011;47978;49.118;12.146;2023-05-10T13:43:13;3.53;;;1.63;;
62024;SDS011;47978;49.118;12.146;2023-05-10T13:47:15;2.70;;;1.52;;
62024;SDS011;47978;49.118;12.146;2023-05-10T13:51:16;4.28;;;1.77;;
62024;SDS011;47978;49.118;12.146;2023-05-10T13:55:18;1.88;;;1.45;;
62024;SDS011;47978;49.118;12.146;2023-05-10T13:59:21;2.65;;;2.00;;
62024;SDS011;47978;49.118;12.146;2023-05-10T14:03:23;2.22;;;1.73;;
62024;SDS011;47978;49.118;12.146;2023-05-10T14:07:24;4.70;;;2.00;;
62024;SDS011;47978;49.118;12.146;2023-05-10T14:11:26;5.07;;;1.50;;
62024;SDS011;47978;49.118;12.146;2023-05-10T14:15:29;2.03;;;1.35;;
62024;SDS011;47978;49.118;12.146;2023-05-10T14:19:30;2.63;;;2.05;;
62024;SDS011;47978;49.118;12.146;2023-05-10T14:23:32;5.95;;;1.85;;
62024;SDS011;47978;49.118;12.146;2023-05-10T14:27:33;2.50;;;1.73;;
62024;SDS011;47978;49.118;12.146;2023-05-10T14:31:36;3.28;;;1.60;;
62024;SDS011;47978;49.118;12.146;2023-05-10T14:35:37;2.63;;;1.55;;
62024;SDS011;47978;49.118;12.146;2023-05-10T14:39:39;2.95;;;1.60;;
62024;SDS011;47978;49.118;12.146;2023-05-10T14:43:40;2.70;;;1.50;;
62024;SDS011;47978;49.118;12.146;2023-05-10T14:47:43;8.35;;;2.47;;
62024;SDS011;47978;49.118;12.146;2023-05-10T14:51:45;3.47;;;1.85;;
62024;SDS011;47978;49.118;12.146;2023-05-10T14:55:46;6.18;;;2.20;;
62024;SDS011;47978;49.118;12.146;2023-05-10T14:59:48;2.85;;;1.95;;
62024;SDS011;47978;49.118;12.146;2023-05-10T15:03:51;3.63;;;2.00;;
62024;SDS011;47978;49.118;12.146;2023-05-10T15:07:53;3.65;;;2.05;;
62024;SDS011;47978;49.118;12.146;2023-05-10T15:11:55;2.65;;;1.98;;
62024;SDS011;47978;49.118;12.146;2023-05-10T15:15:57;2.60;;;2.00;;
62024;SDS011;47978;49.118;12.146;2023-05-10T15:20:00;3.22;;;1.92;;
62024;SDS011;47978;49.118;12.146;2023-05-10T15:28:04;3.08;;;1.88;;
62024;SDS011;47978;49.118;12.146;2023-05-10T15:32:06;3.05;;;1.92;;
62024;SDS011;47978;49.118;12.146;2023-05-10T15:36:08;8.85;;;5.88;;
62024;SDS011;47978;49.118;12.146;2023-05-10T15:40:11;5.00;;;2.30;;
62024;SDS011;47978;49.118;12.146;2023-05-10T15:44:12;4.93;;;2.67;;
62024;SDS011;47978;49.118;12.146;2023-05-10T15:48:14;3.28;;;2.25;;
62024;SDS011;47978;49.118;12.146;2023-05-10T15:52:17;3.72;;;2.72;;
62024;SDS011;47978;49.118;12.146;2023-05-10T15:56:18;5.40;;;2.97;;
62024;SDS011;47978;49.118;12.146;2023-05-10T16:00:20;3.38;;;2.60;;
62024;SDS011;47978;49.118;12.146;2023-05-10T16:04:21;7.40;;;2.80;;
62024;SDS011;47978;49.118;12.146;2023-05-10T16:08:24;5.50;;;3.67;;
62024;SDS011;47978;49.118;12.146;2023-05-10T16:12:26;5.85;;;2.75;;
62024;SDS011;47978;49.118;12.146;2023-05-10T16:16:28;4.00;;;2.70;;
62024;SDS011;47978;49.118;12.146;2023-05-10T16:20:31;5.57;;;3.35;;
62024;SDS011;47978;49.118;12.146;2023-05-10T16:24:34;5.43;;;3.88;;
62024;SDS011;47978;49.118;12.146;2023-05-10T16:28:35;7.70;;;5.55;;
62024;SDS011;47978;49.118;12.146;2023-05-10T16:32:37;11.63;;;5.70;;
62024;SDS011;47978;49.118;12.146;2023-05-10T16:36:38;8.43;;;5.18;;
62024;SDS011;47978;49.118;12.146;2023-05-10T16:40:41;68.25;;;35.60;;
62024;SDS011;47978;49.118;12.146;2023-05-10T16:44:43;17.92;;;10.18;;
62024;SDS011;47978;49.118;12.146;2023-05-10T16:48:44;19.75;;;13.10;;
62024;SDS011;47978;49.118;12.146;2023-05-10T16:52:46;10.05;;;6.85;;
62024;SDS011;47978;49.118;12.146;2023-05-10T16:56:49;16.15;;;9.80;;
62024;SDS011;47978;49.118;12.146;2023-05-10T17:00:50;8.70;;;5.00;;
62024;SDS011;47978;49.118;12.146;2023-05-10T17:04:52;11.88;;;5.35;;
62024;SDS011;47978;49.118;12.146;2023-05-10T17:08:54;7.35;;;4.50;;
62024;SDS011;47978;49.118;12.146;2023-05-10T17:12:56;10.02;;;5.32;;
62024;SDS011;47978;49.118;12.146;2023-05-10T17:16:58;7.00;;;4.68;;
62024;SDS011;47978;49.118;12.146;2023-05-10T17:21:00;7.63;;;4.38;;
62024;SDS011;47978;49.118;12.146;2023-05-10T17:25:01;12.93;;;5.70;;
62024;SDS011;47978;49.118;12.146;2023-05-10T17:29:04;7.63;;;5.05;;
62024;SDS011;47978;49.118;12.146;2023-05-10T17:33:06;16.92;;;6.30;;
62024;SDS011;47978;49.118;12.146;2023-05-10T17:37:07;8.25;;;5.03;;
62024;SDS011;47978;49.118;12.146;2023-05-10T17:41:10;6.75;;;4.80;;
62024;SDS011;47978;49.118;12.146;2023-05-10T17:45:13;8.65;;;5.25;;
62024;SDS011;47978;49.118;12.146;2023-05-10T17:49:15;7.55;;;4.65;;
62024;SDS011;47978;49.118;12.146;2023-05-10T17:53:16;9.23;;;5.45;;
62024;SDS011;47978;49.118;12.146;2023-05-10T17:57:18;9.13;;;5.63;;
62024;SDS011;47978;49.118;12.146;2023-05-10T18:01:21;11.57;;;8.05;;
62024;SDS011;47978;49.118;12.146;2023-05-10T18:05:22;12.40;;;8.82;;
62024;SDS011;47978;49.118;12.146;2023-05-10T18:09:24;12.88;;;7.85;;
62024;SDS011;47978;49.118;12.146;2023-05-10T18:13:26;11.15;;;6.55;;
62024;SDS011;47978;49.118;12.146;2023-05-10T18:17:29;11.30;;;7.20;;
62024;SDS011;47978;49.118;12.146;2023-05-10T18:21:31;14.75;;;7.45;;
62024;SDS011;47978;49.118;12.146;2023-05-10T18:25:32;19.10;;;12.88;;
62024;SDS011;47978;49.118;12.146;2023-05-10T18:29:34;14.70;;;8.60;;
62024;SDS011;47978;49.118;12.146;2023-05-10T18:33:37;10.55;;;7.65;;
62024;SDS011;47978;49.118;12.146;2023-05-10T18:37:38;19.85;;;9.38;;
62024;SDS011;47978;49.118;12.146;2023-05-10T18:41:40;11.48;;;6.28;;
62024;SDS011;47978;49.118;12.146;2023-05-10T18:45:41;9.40;;;4.75;;
62024;SDS011;47978;49.118;12.146;2023-05-10T18:49:44;8.27;;;4.90;;
62024;SDS011;47978;49.118;12.146;2023-05-10T18:53:46;8.18;;;5.32;;
62024;SDS011;47978;49.118;12.146;2023-05-10T18:57:47;11.75;;;5.78;;
62024;SDS011;47978;49.118;12.146;2023-05-10T19:01:49;7.82;;;5.55;;
62024;SDS011;47978;49.118;12.146;2023-05-10T19:05:53;11.63;;;5.87;;
62024;SDS011;47978;49.118;12.146;2023-05-10T19:09:54;10.43;;;4.88;;
62024;SDS011;47978;49.118;12.146;2023-05-10T19:13:56;11.57;;;6.53;;
62024;SDS011;47978;49.118;12.146;2023-05-10T19:17:57;10.38;;;6.45;;
62024;SDS011;47978;49.118;12.146;2023-05-10T19:22:00;11.85;;;7.20;;
62024;SDS011;47978;49.118;12.146;2023-05-10T19:30:04;11.60;;;6.88;;
62024;SDS011;47978;49.118;12.146;2023-05-10T19:34:07;11.30;;;7.45;;
62024;SDS011;47978;49.118;12.146;2023-05-10T19:38:10;12.80;;;7.60;;
62024;SDS011;47978;49.118;12.146;2023-05-10T19:42:11;11.30;;;6.20;;
62024;SDS011;47978;49.118;12.146;2023-05-10T19:46:13;11.20;;;7.45;;
62024;SDS011;47978;49.118;12.146;2023-05-10T19:50:18;9.07;;;6.07;;
62024;SDS011;47978;49.118;12.146;2023-05-10T19:54:20;13.55;;;7.05;;
62024;SDS011;47978;49.118;12.146;2023-05-10T19:58:22;10.00;;;7.55;;
62024;SDS011;47978;49.118;12.146;2023-05-10T20:02:24;13.90;;;7.30;;
62024;SDS011;47978;49.118;12.146;2023-05-10T20:06:25;11.48;;;6.60;;
62024;SDS011;47978;49.118;12.146;2023-05-10T20:10:28;12.93;;;6.53;;
62024;SDS011;47978;49.118;12.146;2023-05-10T20:14:30;10.10;;;6.63;;
62024;SDS011;47978;49.118;12.146;2023-05-10T20:18:31;10.63;;;6.50;;
62024;SDS011;47978;49.118;12.146;2023-05-10T20:22:33;11.05;;;6.85;;
62024;SDS011;47978;49.118;12.146;2023-05-10T20:26:36;10.30;;;6.68;;
62024;SDS011;47978;49.118;12.146;2023-05-10T20:30:37;10.82;;;6.35;;
62024;SDS011;47978;49.118;12.146;2023-05-10T20:34:39;11.27;;;5.78;;
62024;SDS011;47978;49.118;12.146;2023-05-10T20:38:40;12.52;;;6.65;;
62024;SDS011;47978;49.118;12.146;2023-05-10T20:42:43;9.05;;;6.50;;
62024;SDS011;47978;49.118;12.146;2023-05-10T20:46:45;10.90;;;6.80;;
62024;SDS011;47978;49.118;12.146;2023-05-10T20:50:46;9.70;;;6.50;;
62024;SDS011;47978;49.118;12.146;2023-05-10T20:54:48;11.07;;;6.22;;
62024;SDS011;47978;49.118;12.146;2023-05-10T20:58:51;13.30;;;6.38;;
62024;SDS011;47978;49.118;12.146;2023-05-10T21:02:52;11.85;;;7.05;;
62024;SDS011;47978;49.118;12.146;2023-05-10T21:06:54;11.50;;;7.07;;
62024;SDS011;47978;49.118;12.146;2023-05-10T21:10:55;10.40;;;7.05;;
62024;SDS011;47978;49.118;12.146;2023-05-10T21:14:58;10.27;;;7.00;;
62024;SDS011;47978;49.118;12.146;2023-05-10T21:18:59;10.57;;;7.35;;
62024;SDS011;47978;49.118;12.146;2023-05-10T21:23:01;11.38;;;7.68;;
62024;SDS011;47978;49.118;12.146;2023-05-10T21:27:03;10.98;;;7.18;;
62024;SDS011;47978;49.118;12.146;2023-05-10T21:31:05;11.50;;;7.32;;
62024;SDS011;47978;49.118;12.146;2023-05-10T21:35:07;12.20;;;7.05;;
62024;SDS011;47978;49.118;12.146;2023-05-10T21:39:09;12.63;;;7.55;;
62024;SDS011;47978;49.118;12.146;2023-05-10T21:43:11;13.82;;;7.63;;
62024;SDS011;47978;49.118;12.146;2023-05-10T21:47:14;10.35;;;7.80;;
62024;SDS011;47978;49.118;12.146;2023-05-10T21:51:15;11.98;;;7.22;;
62024;SDS011;47978;49.118;12.146;2023-05-10T21:55:17;13.88;;;8.30;;
62024;SDS011;47978;49.118;12.146;2023-05-10T21:59:18;11.95;;;8.02;;
62024;SDS011;47978;49.118;12.146;2023-05-10T22:03:21;12.80;;;8.55;;
62024;SDS011;47978;49.118;12.146;2023-05-10T22:07:23;15.25;;;8.55;;
62024;SDS011;47978;49.118;12.146;2023-05-10T22:11:24;13.35;;;7.68;;
62024;SDS011;47978;49.118;12.146;2023-05-10T22:15:26;10.30;;;7.93;;
62024;SDS011;47978;49.118;12.146;2023-05-10T22:19:29;12.27;;;7.72;;
62024;SDS011;47978;49.118;12.146;2023-05-10T22:23:30;11.65;;;7.53;;
62024;SDS011;47978;49.118;12.146;2023-05-10T22:27:32;12.23;;;8.13;;
62024;SDS011;47978;49.118;12.146;2023-05-10T22:31:33;10.57;;;7.00;;
62024;SDS011;47978;49.118;12.146;2023-05-10T22:35:36;10.88;;;7.20;;
62024;SDS011;47978;49.118;12.146;2023-05-10T22:39:38;11.60;;;6.95;;
62024;SDS011;47978;49.118;12.146;2023-05-10T22:43:39;14.35;;;7.50;;
62024;SDS011;47978;49.118;12.146;2023-05-10T22:47:40;12.65;;;7.38;;
62024;SDS011;47978;49.118;12.146;2023-05-10T22:51:43;11.00;;;7.43;;
62024;SDS011;47978;49.118;12.146;2023-05-10T22:55:45;13.65;;;7.35;;
62024;SDS011;47978;49.118;12.146;2023-05-10T22:59:46;14.40;;;7.15;;
62024;SDS011;47978;49.118;12.146;2023-05-10T23:03:48;9.93;;;6.88;;
62024;SDS011;47978;49.118;12.146;2023-05-10T23:07:51;9.30;;;7.25;;
62024;SDS011;47978;49.118;12.146;2023-05-10T23:11:53;12.18;;;7.28;;
62024;SDS011;47978;49.118;12.146;2023-05-10T23:15:54;10.43;;;6.47;;
62024;SDS011;47978;49.118;12.146;2023-05-10T23:19:56;15.45;;;8.98;;
62024;SDS011;47978;49.118;12.146;2023-05-10T23:23:59;10.00;;;7.38;;
62024;SDS011;47978;49.118;12.146;2023-05-10T23:28:01;10.05;;;6.35;;
62024;SDS011;47978;49.118;12.146;2023-05-10T23:32:02;11.65;;;7.57;;
62024;SDS011;47978;49.118;12.146;2023-05-10T23:36:04;13.45;;;7.38;;
62024;SDS011;47978;49.118;12.146;2023-05-10T23:40:08;10.80;;;7.50;;
62024;SDS011;47978;49.118;12.146;2023-05-10T23:44:10;10.38;;;6.78;;
62024;SDS011;47978;49.118;12.146;2023-05-10T23:48:12;10.40;;;6.10;;
62024;SDS011;47978;49.118;12.146;2023-05-10T23:52:13;10.23;;;6.03;;
62024;SDS011;47978;49.118;12.146;2023-05-10T23:56:16;7.43;;;5.80;;
